Time;durP1;ratioP1;P1;durP2;ratioP2;P2;SDS_P1;SDS_P2;PMS_P1;PMS_P2;Temp;Humidity;BMP_temperature;BMP_pressure;BME280_temperature;BME280_humidity;BME280_pressure;Samples;Min_cycle;Max_cycle;Signal;HPM_P1;HPM_P2
2024/04/01 00:01:18;;;;;;;2.33;0.60;;;;;;;;;;5036811;28;20353;-72
2024/04/01 00:03:44;;;;;;;3.03;0.75;;;;;;;;;;5035064;28;20030;-72
2024/04/01 00:06:10;;;;;;;2.92;0.52;;;;;;;;;;5034709;28;20152;-74
2024/04/01 00:08:36;;;;;;;3.78;0.60;;;;;;;;;;5034118;28;20048;-73
2024/04/01 00:11:02;;;;;;;4.13;0.68;;;;;;;;;;5016342;28;20429;-72
2024/04/01 00:13:29;;;;;;;2.78;0.40;;;;;;;;;;5033817;28;20025;-73
2024/04/01 00:15:55;;;;;;;1.83;0.45;;;;;;;;;;5034233;28;20104;-73
2024/04/01 00:18:21;;;;;;;1.83;0.60;;;;;;;;;;5033556;28;20516;-71
2024/04/01 00:20:56;;;;;;;1.00;0.30;;;;;;;;;;5033882;28;20149;-73
2024/04/01 00:23:23;;;;;;;1.85;0.52;;;;;;;;;;5033912;28;20107;-73
2024/04/01 00:25:49;;;;;;;2.30;0.57;;;;;;;;;;5033958;28;20083;-72
2024/04/01 00:28:15;;;;;;;1.10;0.30;;;;;;;;;;5017002;28;20029;-72
2024/04/01 00:30:41;;;;;;;2.00;0.80;;;;;;;;;;5033710;28;20055;-73
2024/04/01 00:33:09;;;;;;;2.70;0.63;;;;;;;;;;5033596;28;20021;-73
2024/04/01 00:35:38;;;;;;;2.00;0.82;;;;;;;;;;5033495;28;20029;-73
2024/04/01 00:38:04;;;;;;;1.90;0.32;;;;;;;;;;5033668;28;20025;-73
2024/04/01 00:40:30;;;;;;;3.03;0.50;;;;;;;;;;5033101;28;20036;-74
2024/04/01 00:43:06;;;;;;;5.97;0.50;;;;;;;;;;5033849;28;20104;-75
2024/04/01 00:45:33;;;;;;;1.38;0.77;;;;;;;;;;5033718;28;20356;-74
2024/04/01 00:48:01;;;;;;;2.05;0.30;;;;;;;;;;5033627;28;20025;-74
2024/04/01 00:50:31;;;;;;;1.17;0.25;;;;;;;;;;5033504;28;20017;-73
2024/04/01 00:52:57;;;;;;;4.38;0.63;;;;;;;;;;5033539;28;20022;-74
2024/04/01 00:55:23;;;;;;;2.33;1.13;;;;;;;;;;5015516;28;20025;-73
2024/04/01 00:57:50;;;;;;;3.17;0.80;;;;;;;;;;5033068;28;20037;-73
2024/04/01 01:00:16;;;;;;;1.83;0.60;;;;;;;;;;5015417;28;20033;-75
2024/04/01 01:02:42;;;;;;;2.45;0.70;;;;;;;;;;5019110;28;20018;-74
2024/04/01 01:05:09;;;;;;;2.07;0.27;;;;;;;;;;5044278;28;20121;-74
2024/04/01 01:07:36;;;;;;;4.05;1.08;;;;;;;;;;5044517;28;20306;-74
2024/04/01 01:10:05;;;;;;;1.38;0.40;;;;;;;;;;5036461;28;20026;-75
2024/04/01 01:12:31;;;;;;;3.40;1.25;;;;;;;;;;5015041;28;20457;-73
2024/04/01 01:14:57;;;;;;;1.38;0.82;;;;;;;;;;5025474;28;20036;-73
2024/04/01 01:17:23;;;;;;;2.05;0.68;;;;;;;;;;5059538;28;20021;-73
2024/04/01 01:19:49;;;;;;;2.42;0.63;;;;;;;;;;5053323;28;20459;-74
2024/04/01 01:22:15;;;;;;;2.08;0.50;;;;;;;;;;5053650;28;20028;-74
2024/04/01 01:24:41;;;;;;;2.42;0.75;;;;;;;;;;5053211;28;20494;-74
2024/04/01 01:27:07;;;;;;;2.53;0.75;;;;;;;;;;5053777;28;20028;-74
2024/04/01 01:29:33;;;;;;;0.80;0.60;;;;;;;;;;5053209;28;20025;-74
2024/04/01 01:32:00;;;;;;;2.47;0.47;;;;;;;;;;5052821;28;20029;-75
2024/04/01 01:34:27;;;;;;;0.77;0.50;;;;;;;;;;5053960;28;20013;-74
2024/04/01 01:36:54;;;;;;;1.30;0.43;;;;;;;;;;5035381;28;20440;-73
2024/04/01 01:39:20;;;;;;;1.30;0.40;;;;;;;;;;5053335;28;20052;-76
2024/04/01 01:41:46;;;;;;;1.25;0.70;;;;;;;;;;5052689;28;20434;-75
2024/04/01 01:44:12;;;;;;;3.15;0.50;;;;;;;;;;5052998;28;20041;-75
2024/04/01 01:46:38;;;;;;;4.13;0.85;;;;;;;;;;5034792;28;20452;-74
2024/04/01 01:49:04;;;;;;;1.90;0.60;;;;;;;;;;5052661;28;20466;-74
2024/04/01 01:51:31;;;;;;;2.17;0.50;;;;;;;;;;5051735;28;20074;-74
2024/04/01 01:53:57;;;;;;;0.95;0.38;;;;;;;;;;5053097;28;20120;-72
2024/04/01 01:56:23;;;;;;;2.38;0.95;;;;;;;;;;5052727;28;20120;-74
2024/04/01 01:58:49;;;;;;;0.90;0.68;;;;;;;;;;5052427;28;20107;-74
2024/04/01 02:01:15;;;;;;;3.90;0.95;;;;;;;;;;5052260;28;20104;-73
2024/04/01 02:03:44;;;;;;;1.58;0.50;;;;;;;;;;5052454;28;20432;-73
2024/04/01 02:06:10;;;;;;;0.77;0.63;;;;;;;;;;5052421;28;20024;-73
2024/04/01 02:08:36;;;;;;;2.45;0.95;;;;;;;;;;5052045;28;20021;-74
2024/04/01 02:11:02;;;;;;;2.63;0.88;;;;;;;;;;5051784;28;20090;-74
2024/04/01 02:13:28;;;;;;;2.50;0.75;;;;;;;;;;5033879;28;20102;-74
2024/04/01 02:16:06;;;;;;;4.75;0.90;;;;;;;;;;5052339;28;20104;-73
2024/04/01 02:18:32;;;;;;;1.08;0.50;;;;;;;;;;5052514;28;20033;-73
2024/04/01 02:21:01;;;;;;;1.65;0.50;;;;;;;;;;5052150;28;20566;-75
2024/04/01 02:23:33;;;;;;;3.30;0.52;;;;;;;;;;5052144;28;20143;-71
2024/04/01 02:26:02;;;;;;;3.22;0.82;;;;;;;;;;5051687;28;20028;-73
2024/04/01 02:28:30;;;;;;;4.18;0.45;;;;;;;;;;5051769;28;20032;-74
2024/04/01 02:30:56;;;;;;;4.90;0.60;;;;;;;;;;5051552;28;20432;-73
2024/04/01 02:33:22;;;;;;;3.25;0.38;;;;;;;;;;5052514;28;20335;-74
2024/04/01 02:35:48;;;;;;;1.70;0.40;;;;;;;;;;5055210;28;20468;-74
2024/04/01 02:38:14;;;;;;;1.52;0.60;;;;;;;;;;5039875;28;20025;-74
2024/04/01 02:40:40;;;;;;;1.13;0.75;;;;;;;;;;5058484;28;20052;-73
2024/04/01 02:43:06;;;;;;;2.00;0.60;;;;;;;;;;5056535;28;20033;-73
2024/04/01 02:45:32;;;;;;;1.42;0.63;;;;;;;;;;5053873;28;20041;-73
2024/04/01 02:47:58;;;;;;;2.42;0.60;;;;;;;;;;5034518;28;20090;-73
2024/04/01 02:50:24;;;;;;;4.63;1.00;;;;;;;;;;5052267;28;20021;-73
2024/04/01 02:52:50;;;;;;;3.00;1.00;;;;;;;;;;5052118;28;20021;-73
2024/04/01 02:55:19;;;;;;;1.55;0.52;;;;;;;;;;5054401;28;20032;-73
2024/04/01 02:57:45;;;;;;;2.25;0.88;;;;;;;;;;5052262;28;20032;-73
2024/04/01 03:00:17;;;;;;;3.78;1.00;;;;;;;;;;5051868;28;20025;-73
2024/04/01 03:02:47;;;;;;;4.47;1.05;;;;;;;;;;5053889;28;20025;-73
2024/04/01 03:05:13;;;;;;;2.28;1.05;;;;;;;;;;5057516;28;20021;-73
2024/04/01 03:07:40;;;;;;;4.93;0.75;;;;;;;;;;5058963;28;20052;-73
2024/04/01 03:10:06;;;;;;;2.15;1.02;;;;;;;;;;5038710;28;20443;-75
2024/04/01 03:12:33;;;;;;;1.65;1.08;;;;;;;;;;5055963;28;20043;-73
2024/04/01 03:14:58;;;;;;;2.00;0.88;;;;;;;;;;5055844;28;20021;-74
2024/04/01 03:17:29;;;;;;;2.30;1.00;;;;;;;;;;5055969;28;20036;-72
2024/04/01 03:19:55;;;;;;;4.53;1.02;;;;;;;;;;5056205;28;20032;-74
2024/04/01 03:22:21;;;;;;;4.32;1.10;;;;;;;;;;5055726;28;20037;-74
2024/04/01 03:24:47;;;;;;;5.00;1.45;;;;;;;;;;5055780;28;20032;-74
2024/04/01 03:27:13;;;;;;;4.25;1.35;;;;;;;;;;5055879;28;20029;-74
2024/04/01 03:29:39;;;;;;;5.80;1.15;;;;;;;;;;5056062;28;20100;-73
2024/04/01 03:32:06;;;;;;;7.30;1.50;;;;;;;;;;5055111;28;20486;-74
2024/04/01 03:34:32;;;;;;;4.68;1.38;;;;;;;;;;5055296;28;20365;-73
2024/04/01 03:36:59;;;;;;;1.73;1.02;;;;;;;;;;5055365;28;20025;-72
2024/04/01 03:39:25;;;;;;;5.60;1.02;;;;;;;;;;5055269;28;20025;-74
2024/04/01 03:41:51;;;;;;;5.57;1.35;;;;;;;;;;5054978;28;20037;-74
2024/04/01 03:44:17;;;;;;;4.28;0.93;;;;;;;;;;5058025;28;20040;-73
2024/04/01 03:46:44;;;;;;;7.18;1.25;;;;;;;;;;5063080;28;20029;-74
2024/04/01 03:49:10;;;;;;;5.95;1.45;;;;;;;;;;5063691;28;20028;-75
2024/04/01 03:51:37;;;;;;;4.72;1.20;;;;;;;;;;5042839;28;20076;-72
2024/04/01 03:54:03;;;;;;;4.43;1.30;;;;;;;;;;5057064;28;20072;-73
2024/04/01 03:56:29;;;;;;;3.28;1.55;;;;;;;;;;5066618;28;20021;-74
2024/04/01 03:58:56;;;;;;;3.35;1.15;;;;;;;;;;5057322;28;20098;-73
2024/04/01 04:01:22;;;;;;;4.82;2.00;;;;;;;;;;5055216;28;20025;-75
2024/04/01 04:03:48;;;;;;;4.57;1.80;;;;;;;;;;5055271;28;20055;-73
2024/04/01 04:06:14;;;;;;;5.72;1.58;;;;;;;;;;5054764;28;20031;-73
2024/04/01 04:08:40;;;;;;;7.68;1.95;;;;;;;;;;5054829;28;20025;-73
2024/04/01 04:11:11;;;;;;;4.85;1.92;;;;;;;;;;5054455;28;20029;-73
2024/04/01 04:13:37;;;;;;;9.77;2.55;;;;;;;;;;5054188;28;20118;-73
2024/04/01 04:16:03;;;;;;;7.40;1.98;;;;;;;;;;5036917;28;20033;-74
2024/04/01 04:18:29;;;;;;;8.30;2.03;;;;;;;;;;5055032;28;20028;-73
2024/04/01 04:20:55;;;;;;;5.85;2.13;;;;;;;;;;5054563;28;20039;-73
2024/04/01 04:23:24;;;;;;;10.80;3.03;;;;;;;;;;5054125;28;20040;-73
2024/04/01 04:25:51;;;;;;;6.30;1.90;;;;;;;;;;5036386;28;20067;-73
2024/04/01 04:28:17;;;;;;;9.30;1.98;;;;;;;;;;5054172;28;20098;-73
2024/04/01 04:30:43;;;;;;;6.30;1.70;;;;;;;;;;5053987;28;20138;-73
2024/04/01 04:33:09;;;;;;;9.52;2.00;;;;;;;;;;5035582;28;20028;-74
2024/04/01 04:35:35;;;;;;;6.75;1.85;;;;;;;;;;5035630;28;20025;-71
2024/04/01 04:38:01;;;;;;;11.23;1.88;;;;;;;;;;5036049;28;20155;-73
2024/04/01 04:40:27;;;;;;;6.90;1.55;;;;;;;;;;5053890;28;20156;-72
2024/04/01 04:42:54;;;;;;;2.85;1.02;;;;;;;;;;5053786;28;20483;-72
2024/04/01 04:45:23;;;;;;;5.65;1.25;;;;;;;;;;5065638;22;20491;-72
2024/04/01 04:47:50;;;;;;;3.53;1.35;;;;;;;;;;5035337;28;20021;-71
2024/04/01 04:50:16;;;;;;;3.08;0.90;;;;;;;;;;5053395;28;20025;-72
2024/04/01 04:52:42;;;;;;;4.47;1.20;;;;;;;;;;5034848;28;20451;-72
2024/04/01 04:55:08;;;;;;;4.32;1.25;;;;;;;;;;5035020;28;20017;-72
2024/04/01 04:57:35;;;;;;;5.53;0.93;;;;;;;;;;5035446;28;20025;-72
2024/04/01 05:00:01;;;;;;;3.40;1.25;;;;;;;;;;5035188;28;20067;-72
2024/04/01 05:02:27;;;;;;;6.00;1.48;;;;;;;;;;5034823;28;20024;-72
2024/04/01 05:04:53;;;;;;;3.50;1.08;;;;;;;;;;5053326;28;20391;-71
2024/04/01 05:07:19;;;;;;;6.10;1.92;;;;;;;;;;5053727;28;20463;-72
2024/04/01 05:09:45;;;;;;;8.27;0.80;;;;;;;;;;5053898;28;20025;-72
2024/04/01 05:12:11;;;;;;;3.72;0.70;;;;;;;;;;5053022;28;20071;-72
2024/04/01 05:14:37;;;;;;;2.40;0.60;;;;;;;;;;5035018;28;20028;-72
2024/04/01 05:17:04;;;;;;;5.20;0.55;;;;;;;;;;5034675;28;20086;-71
2024/04/01 05:19:30;;;;;;;3.15;0.95;;;;;;;;;;5052760;28;20076;-71
2024/04/01 05:21:57;;;;;;;8.70;0.82;;;;;;;;;;5052018;28;20070;-72
2024/04/01 05:24:23;;;;;;;2.45;0.55;;;;;;;;;;5034129;28;20372;-71
2024/04/01 05:26:49;;;;;;;2.75;0.30;;;;;;;;;;5051486;28;20033;-72
2024/04/01 05:29:15;;;;;;;2.60;0.30;;;;;;;;;;5034550;28;20017;-72
2024/04/01 05:31:41;;;;;;;3.60;1.40;;;;;;;;;;5034774;28;20029;-71
2024/04/01 05:34:08;;;;;;;1.75;0.60;;;;;;;;;;5053583;28;20025;-72
2024/04/01 05:36:34;;;;;;;0.88;0.43;;;;;;;;;;5035588;28;20025;-72
2024/04/01 05:39:01;;;;;;;1.58;0.32;;;;;;;;;;5035961;28;20055;-72
2024/04/01 05:41:27;;;;;;;1.42;0.30;;;;;;;;;;5057768;28;20024;-73
2024/04/01 05:43:54;;;;;;;1.75;0.50;;;;;;;;;;5057644;28;20479;-71
2024/04/01 05:46:20;;;;;;;5.40;0.60;;;;;;;;;;5056950;28;20031;-73
2024/04/01 05:48:46;;;;;;;4.47;0.70;;;;;;;;;;5043522;28;20448;-73
2024/04/01 05:51:13;;;;;;;1.25;0.22;;;;;;;;;;5042494;28;20053;-73
2024/04/01 05:53:39;;;;;;;2.38;0.40;;;;;;;;;;5044856;28;20513;-72
2024/04/01 05:56:06;;;;;;;3.08;0.35;;;;;;;;;;5062281;28;20040;-72
2024/04/01 05:58:35;;;;;;;2.92;0.75;;;;;;;;;;5042651;28;20052;-73
2024/04/01 06:01:01;;;;;;;7.28;2.22;;;;;;;;;;5040267;28;20054;-72
2024/04/01 06:03:27;;;;;;;7.05;2.88;;;;;;;;;;5040530;28;20025;-72
2024/04/01 06:05:53;;;;;;;7.63;1.83;;;;;;;;;;5039892;28;20021;-73
2024/04/01 06:08:19;;;;;;;9.02;2.28;;;;;;;;;;5057635;28;20017;-73
2024/04/01 06:10:45;;;;;;;5.70;2.67;;;;;;;;;;5035995;28;20480;-72
2024/04/01 06:13:11;;;;;;;7.90;2.13;;;;;;;;;;5035589;28;20025;-73
2024/04/01 06:15:38;;;;;;;6.38;1.80;;;;;;;;;;5054742;28;20071;-73
2024/04/01 06:18:04;;;;;;;6.63;2.42;;;;;;;;;;5056643;28;20029;-72
2024/04/01 06:20:30;;;;;;;8.75;2.28;;;;;;;;;;5035409;28;20566;-73
2024/04/01 06:22:56;;;;;;;7.20;2.83;;;;;;;;;;5035366;28;20437;-72
2024/04/01 06:25:22;;;;;;;5.55;2.10;;;;;;;;;;5055209;28;20028;-73
2024/04/01 06:27:48;;;;;;;5.72;2.20;;;;;;;;;;5053060;28;20021;-73
2024/04/01 06:30:14;;;;;;;4.57;2.38;;;;;;;;;;5052745;28;20017;-72
2024/04/01 06:32:40;;;;;;;4.93;1.95;;;;;;;;;;5053853;28;20026;-72
2024/04/01 06:35:06;;;;;;;5.90;1.73;;;;;;;;;;5037870;28;20021;-72
2024/04/01 06:37:32;;;;;;;5.28;1.55;;;;;;;;;;5052860;28;20021;-72
2024/04/01 06:39:58;;;;;;;1.95;0.65;;;;;;;;;;5055371;28;20020;-72
2024/04/01 06:42:24;;;;;;;4.40;1.10;;;;;;;;;;5058003;28;20039;-73
2024/04/01 06:44:50;;;;;;;4.85;1.40;;;;;;;;;;5042459;28;20396;-71
2024/04/01 06:47:18;;;;;;;4.10;1.17;;;;;;;;;;5059852;28;20079;-71
2024/04/01 06:49:44;;;;;;;2.03;0.98;;;;;;;;;;5055702;28;20018;-72
2024/04/01 06:52:10;;;;;;;3.13;0.95;;;;;;;;;;5059099;28;20017;-72
2024/04/01 06:54:36;;;;;;;3.33;1.08;;;;;;;;;;5042683;28;20025;-72
2024/04/01 06:57:02;;;;;;;1.85;0.80;;;;;;;;;;5038486;28;20028;-72
2024/04/01 06:59:28;;;;;;;1.70;0.75;;;;;;;;;;5053688;28;20108;-72
2024/04/01 07:01:54;;;;;;;2.75;0.93;;;;;;;;;;5035549;28;20029;-72
2024/04/01 07:04:20;;;;;;;2.72;1.80;;;;;;;;;;5054863;28;20032;-72
2024/04/01 07:06:46;;;;;;;3.50;1.85;;;;;;;;;;5054533;28;20028;-73
2024/04/01 07:09:12;;;;;;;3.20;1.98;;;;;;;;;;5036036;28;20021;-72
2024/04/01 07:11:38;;;;;;;2.25;1.73;;;;;;;;;;5052619;28;20036;-72
2024/04/01 07:14:05;;;;;;;4.03;1.92;;;;;;;;;;5052520;28;20024;-72
2024/04/01 07:16:31;;;;;;;2.00;1.40;;;;;;;;;;5052323;28;20032;-71
2024/04/01 07:18:57;;;;;;;2.67;1.40;;;;;;;;;;5053030;28;20028;-72
2024/04/01 07:21:23;;;;;;;8.98;2.22;;;;;;;;;;5052069;28;20383;-72
2024/04/01 07:23:49;;;;;;;3.08;1.83;;;;;;;;;;5052263;28;20029;-72
2024/04/01 07:26:15;;;;;;;2.33;2.05;;;;;;;;;;5034690;28;20025;-73
2024/04/01 07:28:41;;;;;;;3.50;1.55;;;;;;;;;;5052389;28;20021;-72
2024/04/01 07:31:07;;;;;;;1.67;1.45;;;;;;;;;;5034701;28;20021;-72
2024/04/01 07:33:33;;;;;;;1.90;1.58;;;;;;;;;;5034474;28;20021;-72
2024/04/01 07:36:00;;;;;;;2.47;1.30;;;;;;;;;;5052931;28;20025;-72
2024/04/01 07:38:26;;;;;;;4.85;2.47;;;;;;;;;;5054788;28;20035;-73
2024/04/01 07:40:52;;;;;;;1.88;1.40;;;;;;;;;;5034813;28;20032;-72
2024/04/01 07:43:18;;;;;;;1.75;1.00;;;;;;;;;;5034100;28;20029;-72
2024/04/01 07:45:44;;;;;;;2.95;1.15;;;;;;;;;;5052891;28;20029;-73
2024/04/01 07:48:10;;;;;;;3.00;0.73;;;;;;;;;;5052622;28;20079;-74
2024/04/01 07:50:36;;;;;;;2.58;0.82;;;;;;;;;;5043612;28;20028;-72
2024/04/01 07:53:02;;;;;;;1.55;0.60;;;;;;;;;;5044758;28;20396;-72
2024/04/01 07:55:28;;;;;;;1.95;1.00;;;;;;;;;;5041705;28;20025;-72
2024/04/01 07:57:54;;;;;;;1.02;0.60;;;;;;;;;;5041219;28;20021;-73
2024/04/01 08:00:20;;;;;;;1.65;0.80;;;;;;;;;;5057530;28;20107;-72
2024/04/01 08:02:46;;;;;;;0.95;0.43;;;;;;;;;;5056390;28;20079;-72
2024/04/01 08:05:12;;;;;;;2.35;0.88;;;;;;;;;;5037746;28;20086;-73
2024/04/01 08:07:38;;;;;;;2.45;0.95;;;;;;;;;;5055664;28;20127;-72
2024/04/01 08:10:04;;;;;;;1.73;1.45;;;;;;;;;;5037948;28;20104;-71
2024/04/01 08:12:30;;;;;;;1.90;1.13;;;;;;;;;;5056655;28;20025;-73
2024/04/01 08:14:56;;;;;;;1.55;0.80;;;;;;;;;;5039472;28;20021;-73
2024/04/01 08:17:22;;;;;;;3.97;0.82;;;;;;;;;;5058200;28;20028;-72
2024/04/01 08:19:49;;;;;;;2.03;1.02;;;;;;;;;;5056646;28;20040;-73
2024/04/01 08:22:15;;;;;;;3.03;1.15;;;;;;;;;;5055877;28;20024;-71
2024/04/01 08:24:41;;;;;;;0.90;0.70;;;;;;;;;;5055190;28;20100;-73
2024/04/01 08:27:09;;;;;;;2.28;1.33;;;;;;;;;;5044910;28;20045;-74
2024/04/01 08:29:35;;;;;;;2.45;0.68;;;;;;;;;;5033428;28;20021;-73
2024/04/01 08:32:01;;;;;;;1.40;0.80;;;;;;;;;;5051834;28;20021;-72
2024/04/01 08:34:27;;;;;;;1.85;0.60;;;;;;;;;;5050740;28;20056;-73
2024/04/01 08:36:53;;;;;;;2.38;0.57;;;;;;;;;;5028358;28;20040;-72
2024/04/01 08:39:20;;;;;;;3.40;0.52;;;;;;;;;;5044663;28;20026;-72
2024/04/01 08:41:52;;;;;;;1.80;0.50;;;;;;;;;;5043834;28;20049;-73
2024/04/01 08:44:18;;;;;;;2.15;0.40;;;;;;;;;;5043930;28;20502;-73
2024/04/01 08:46:45;;;;;;;1.08;0.50;;;;;;;;;;5028076;28;20037;-73
2024/04/01 08:49:11;;;;;;;0.93;0.40;;;;;;;;;;5044714;28;20021;-73
2024/04/01 08:51:38;;;;;;;0.77;0.20;;;;;;;;;;5043763;28;20013;-72
2024/04/01 08:54:07;;;;;;;0.68;0.40;;;;;;;;;;5044237;28;20028;-73
2024/04/01 08:56:33;;;;;;;0.63;0.20;;;;;;;;;;5047224;28;20024;-73
2024/04/01 08:59:00;;;;;;;0.30;0.13;;;;;;;;;;5029770;28;20051;-72
2024/04/01 09:01:26;;;;;;;1.75;0.30;;;;;;;;;;5048253;28;20476;-73
2024/04/01 09:03:53;;;;;;;0.73;0.38;;;;;;;;;;5047447;28;20036;-73
2024/04/01 09:06:19;;;;;;;0.63;0.20;;;;;;;;;;5047730;28;20562;-72
2024/04/01 09:08:46;;;;;;;1.13;0.20;;;;;;;;;;5027622;28;20021;-72
2024/04/01 09:11:13;;;;;;;0.35;0.10;;;;;;;;;;5046047;28;20027;-73
2024/04/01 09:13:39;;;;;;;0.80;0.10;;;;;;;;;;5048991;28;20039;-73
2024/04/01 09:16:05;;;;;;;0.20;0.10;;;;;;;;;;5029125;28;20468;-73
2024/04/01 09:18:38;;;;;;;0.73;0.10;;;;;;;;;;5039946;28;20062;-72
2024/04/01 09:21:06;;;;;;;0.75;0.10;;;;;;;;;;5057451;28;20029;-72
2024/04/01 09:23:32;;;;;;;1.00;0.00;;;;;;;;;;5038739;28;20487;-73
2024/04/01 09:26:01;;;;;;;0.52;0.20;;;;;;;;;;5055344;28;20079;-73
2024/04/01 09:28:28;;;;;;;3.30;0.17;;;;;;;;;;5053822;28;20021;-72
2024/04/01 09:30:56;;;;;;;0.30;0.10;;;;;;;;;;5053729;28;20028;-72
2024/04/01 09:33:23;;;;;;;0.90;0.22;;;;;;;;;;5052736;28;20383;-73
2024/04/01 09:35:50;;;;;;;0.22;0.00;;;;;;;;;;5050134;28;20021;-73
2024/04/01 09:38:17;;;;;;;0.15;0.15;;;;;;;;;;5041722;28;20025;-73
2024/04/01 09:40:48;;;;;;;0.47;0.10;;;;;;;;;;5052918;28;20029;-73
2024/04/01 09:43:20;;;;;;;0.98;0.10;;;;;;;;;;5052417;28;20032;-72
2024/04/01 09:45:46;;;;;;;0.90;0.17;;;;;;;;;;5057008;28;20124;-73
2024/04/01 09:48:12;;;;;;;2.05;0.40;;;;;;;;;;5059455;28;20539;-73
2024/04/01 09:50:39;;;;;;;0.20;0.08;;;;;;;;;;5060148;28;20055;-73
2024/04/01 09:53:05;;;;;;;0.43;0.17;;;;;;;;;;5061781;28;20028;-72
2024/04/01 09:55:33;;;;;;;1.60;0.10;;;;;;;;;;5059976;28;20021;-73
2024/04/01 09:58:14;;;;;;;0.43;0.20;;;;;;;;;;5053395;28;20028;-72
2024/04/01 10:00:40;;;;;;;0.52;0.20;;;;;;;;;;5037167;28;20024;-72
2024/04/01 10:03:34;;;;;;;1.35;0.30;;;;;;;;;;5054228;28;20017;-73
2024/04/01 10:06:19;;;;;;;1.38;0.05;;;;;;;;;;5055400;28;20108;-73
2024/04/01 10:09:08;;;;;;;1.08;0.10;;;;;;;;;;5043830;28;20104;-72
2024/04/01 10:11:51;;;;;;;0.30;0.20;;;;;;;;;;5027626;28;20037;-73
2024/04/01 10:14:33;;;;;;;2.08;0.20;;;;;;;;;;5055457;28;20017;-73
2024/04/01 10:17:34;;;;;;;0.17;0.10;;;;;;;;;;5036270;28;20039;-73
2024/04/01 10:20:21;;;;;;;0.63;0.52;;;;;;;;;;4980508;28;20039;-73
2024/04/01 10:22:53;;;;;;;2.40;0.22;;;;;;;;;;5029280;28;20028;-73
2024/04/01 10:25:57;;;;;;;1.02;0.20;;;;;;;;;;5035890;28;20028;-73
2024/04/01 10:28:32;;;;;;;0.52;0.20;;;;;;;;;;4991810;28;20412;-72
2024/04/01 10:31:18;;;;;;;1.77;0.13;;;;;;;;;;5036596;28;20053;-73
2024/04/01 10:34:04;;;;;;;0.40;0.30;;;;;;;;;;5023786;28;20029;-72
2024/04/01 10:36:33;;;;;;;0.85;0.17;;;;;;;;;;5035479;28;20028;-73
2024/04/01 10:39:02;;;;;;;0.77;0.30;;;;;;;;;;5054159;28;20025;-73
2024/04/01 10:41:47;;;;;;;1.15;0.40;;;;;;;;;;5054790;28;20090;-73
2024/04/01 10:44:31;;;;;;;0.80;0.30;;;;;;;;;;5053747;28;20108;-72
2024/04/01 10:47:16;;;;;;;0.90;0.30;;;;;;;;;;5052902;28;20033;-72
2024/04/01 10:49:45;;;;;;;0.35;0.10;;;;;;;;;;5052773;28;20021;-73
2024/04/01 10:52:11;;;;;;;1.42;0.40;;;;;;;;;;5035285;28;20025;-73
2024/04/01 10:54:56;;;;;;;0.50;0.20;;;;;;;;;;5053190;28;20052;-72
2024/04/01 10:57:37;;;;;;;0.63;0.30;;;;;;;;;;5053889;28;20060;-74
2024/04/01 11:00:12;;;;;;;0.75;0.10;;;;;;;;;;5035406;28;20025;-72
2024/04/01 11:02:55;;;;;;;0.68;0.20;;;;;;;;;;5034980;28;20435;-72
2024/04/01 11:05:33;;;;;;;0.40;0.15;;;;;;;;;;5053518;28;20021;-73
2024/04/01 11:08:18;;;;;;;0.52;0.20;;;;;;;;;;5035655;28;20048;-73
2024/04/01 11:10:48;;;;;;;2.40;0.15;;;;;;;;;;5053222;28;20032;-73
2024/04/01 11:13:19;;;;;;;0.30;0.17;;;;;;;;;;5034913;28;20017;-74
2024/04/01 11:15:45;;;;;;;1.00;0.80;;;;;;;;;;5035822;28;20029;-72
2024/04/01 11:18:14;;;;;;;1.60;0.30;;;;;;;;;;5035552;28;20040;-72
2024/04/01 11:20:45;;;;;;;1.63;0.40;;;;;;;;;;5035308;28;20033;-73
2024/04/01 11:23:23;;;;;;;0.90;0.77;;;;;;;;;;5054244;28;20021;-72
2024/04/01 11:25:53;;;;;;;0.40;0.38;;;;;;;;;;5039197;28;20267;-73
2024/04/01 11:28:19;;;;;;;1.73;0.40;;;;;;;;;;5057409;28;20031;-73
2024/04/01 11:30:45;;;;;;;0.85;0.40;;;;;;;;;;5057568;28;20375;-73
2024/04/01 11:33:14;;;;;;;2.05;0.22;;;;;;;;;;5038972;28;20039;-73
2024/04/01 11:35:47;;;;;;;1.05;0.30;;;;;;;;;;5057308;28;20100;-73
2024/04/01 11:38:31;;;;;;;0.55;0.32;;;;;;;;;;5057637;28;20033;-72
2024/04/01 11:40:58;;;;;;;1.70;0.40;;;;;;;;;;5039197;28;20021;-73
2024/04/01 11:43:26;;;;;;;4.55;1.27;;;;;;;;;;5057607;28;20379;-73
2024/04/01 11:45:52;;;;;;;0.60;0.40;;;;;;;;;;5040087;28;20052;-73
2024/04/01 11:48:19;;;;;;;2.20;0.38;;;;;;;;;;5056606;28;20021;-73
2024/04/01 11:50:49;;;;;;;1.13;0.30;;;;;;;;;;5057494;28;20104;-72
2024/04/01 11:53:15;;;;;;;0.32;0.20;;;;;;;;;;5056914;28;20429;-73
2024/04/01 11:56:00;;;;;;;0.38;0.20;;;;;;;;;;5056937;28;20029;-73
2024/04/01 11:58:26;;;;;;;2.40;0.43;;;;;;;;;;5039544;28;20021;-72
2024/04/01 12:00:53;;;;;;;0.70;0.30;;;;;;;;;;5039258;28;20493;-73
2024/04/01 12:03:20;;;;;;;2.22;0.73;;;;;;;;;;5057464;28;20029;-72
2024/04/01 12:05:47;;;;;;;1.92;0.38;;;;;;;;;;5040285;28;20025;-72
2024/04/01 12:08:15;;;;;;;1.00;0.40;;;;;;;;;;5057871;28;20013;-73
2024/04/01 12:10:43;;;;;;;1.58;0.32;;;;;;;;;;5040171;28;20025;-73
2024/04/01 12:13:09;;;;;;;0.82;0.30;;;;;;;;;;5039405;28;20090;-73
2024/04/01 12:15:37;;;;;;;1.05;0.47;;;;;;;;;;5057252;28;20014;-72
2024/04/01 12:18:06;;;;;;;2.35;0.52;;;;;;;;;;5057665;28;20053;-73
2024/04/01 12:20:37;;;;;;;1.42;0.75;;;;;;;;;;5039516;28;20047;-73
2024/04/01 12:23:07;;;;;;;1.05;0.73;;;;;;;;;;5039292;28;20029;-73
2024/04/01 12:25:36;;;;;;;0.68;0.43;;;;;;;;;;5039111;28;20059;-73
2024/04/01 12:28:07;;;;;;;1.15;0.88;;;;;;;;;;5056583;28;20025;-73
2024/04/01 12:30:37;;;;;;;0.93;0.45;;;;;;;;;;5056782;28;20029;-73
2024/04/01 12:33:05;;;;;;;4.32;0.57;;;;;;;;;;5056597;28;20025;-73
2024/04/01 12:35:31;;;;;;;0.70;0.52;;;;;;;;;;5056466;28;20092;-72
2024/04/01 12:38:03;;;;;;;1.75;0.50;;;;;;;;;;5039567;28;20495;-73
2024/04/01 12:40:29;;;;;;;0.70;0.28;;;;;;;;;;5057337;28;20029;-74
2024/04/01 12:42:56;;;;;;;0.32;0.20;;;;;;;;;;5056799;28;20021;-73
2024/04/01 12:45:22;;;;;;;2.25;0.43;;;;;;;;;;5056836;28;20037;-74
2024/04/01 12:47:48;;;;;;;2.20;0.38;;;;;;;;;;5049383;28;20021;-73
2024/04/01 12:50:15;;;;;;;1.30;0.20;;;;;;;;;;5038705;28;20044;-73
2024/04/01 12:52:46;;;;;;;1.08;0.28;;;;;;;;;;5039288;28;20151;-73
2024/04/01 12:55:17;;;;;;;0.47;0.10;;;;;;;;;;5040968;28;20451;-73
2024/04/01 12:57:55;;;;;;;0.57;0.07;;;;;;;;;;5025076;28;20061;-73
2024/04/01 13:00:23;;;;;;;0.30;0.10;;;;;;;;;;5025650;28;20268;-73
2024/04/01 13:03:08;;;;;;;0.82;0.10;;;;;;;;;;5023856;28;20060;-73
2024/04/01 13:05:49;;;;;;;0.77;0.20;;;;;;;;;;5025335;28;20076;-73
2024/04/01 13:08:27;;;;;;;1.17;0.20;;;;;;;;;;5025035;28;20376;-73
2024/04/01 13:11:03;;;;;;;0.10;0.00;;;;;;;;;;5023553;28;20022;-72
2024/04/01 13:13:36;;;;;;;0.20;0.10;;;;;;;;;;5040307;28;20017;-72
2024/04/01 13:16:10;;;;;;;0.90;0.10;;;;;;;;;;5021151;28;20148;-73
2024/04/01 13:18:57;;;;;;;1.10;0.10;;;;;;;;;;5051353;28;20029;-72
2024/04/01 13:21:30;;;;;;;0.85;0.30;;;;;;;;;;5057702;28;20041;-72
2024/04/01 13:24:03;;;;;;;1.58;0.10;;;;;;;;;;5060412;28;20104;-73
2024/04/01 13:26:29;;;;;;;2.38;0.20;;;;;;;;;;5059552;28;20116;-73
2024/04/01 13:28:59;;;;;;;2.65;0.43;;;;;;;;;;5061308;28;20025;-73
2024/04/01 13:31:25;;;;;;;1.55;0.10;;;;;;;;;;5040738;28;20021;-73
2024/04/01 13:34:10;;;;;;;2.67;0.35;;;;;;;;;;5039371;28;20082;-71
2024/04/01 13:36:54;;;;;;;1.35;0.22;;;;;;;;;;5057630;28;20032;-73
2024/04/01 13:39:23;;;;;;;1.98;0.10;;;;;;;;;;5041494;28;20063;-74
2024/04/01 13:42:23;;;;;;;0.77;0.30;;;;;;;;;;5059100;28;20067;-73
2024/04/01 13:44:58;;;;;;;1.00;0.20;;;;;;;;;;5006741;28;20041;-72
2024/04/01 13:47:24;;;;;;;3.10;0.93;;;;;;;;;;5040774;28;20021;-73
2024/04/01 13:49:50;;;;;;;1.65;0.50;;;;;;;;;;5042632;28;20017;-73
2024/04/01 13:52:22;;;;;;;0.30;0.15;;;;;;;;;;5059120;28;20040;-75
2024/04/01 13:54:54;;;;;;;0.80;0.20;;;;;;;;;;5040048;28;20025;-74
2024/04/01 13:57:23;;;;;;;0.57;0.40;;;;;;;;;;5037810;28;20028;-73
2024/04/01 13:59:50;;;;;;;0.65;0.35;;;;;;;;;;5037457;28;20029;-72
2024/04/01 14:02:35;;;;;;;1.05;0.57;;;;;;;;;;5037574;28;20025;-76
2024/04/01 14:05:20;;;;;;;1.67;0.22;;;;;;;;;;5041575;28;20032;-73
2024/04/01 14:07:56;;;;;;;2.75;0.38;;;;;;;;;;5058098;28;20479;-73
2024/04/01 14:10:32;;;;;;;0.98;0.20;;;;;;;;;;5056207;28;20029;-72
2024/04/01 14:13:04;;;;;;;0.93;0.30;;;;;;;;;;5055302;28;20021;-72
2024/04/01 14:15:34;;;;;;;1.33;0.20;;;;;;;;;;5056065;28;20009;-72
2024/04/01 14:18:18;;;;;;;2.20;0.35;;;;;;;;;;5056136;28;20509;-71
2024/04/01 14:20:48;;;;;;;0.28;0.10;;;;;;;;;;5055014;28;20498;-73
2024/04/01 14:23:15;;;;;;;1.33;0.20;;;;;;;;;;5036711;28;20630;-72
2024/04/01 14:25:43;;;;;;;1.65;0.30;;;;;;;;;;5041495;28;20036;-73
2024/04/01 14:28:09;;;;;;;4.15;0.30;;;;;;;;;;5058175;28;20029;-72
2024/04/01 14:30:36;;;;;;;1.20;0.47;;;;;;;;;;5056876;28;20131;-72
2024/04/01 14:33:04;;;;;;;1.58;0.50;;;;;;;;;;5074509;28;20021;-72
2024/04/01 14:35:30;;;;;;;0.93;0.50;;;;;;;;;;5056088;28;20104;-72
2024/04/01 14:37:57;;;;;;;0.63;0.40;;;;;;;;;;5074836;28;20028;-72
2024/04/01 14:40:23;;;;;;;1.48;0.70;;;;;;;;;;5074949;28;20072;-72
2024/04/01 14:42:50;;;;;;;1.05;0.57;;;;;;;;;;5056500;28;20047;-72
2024/04/01 14:45:16;;;;;;;1.50;0.40;;;;;;;;;;5056173;28;20047;-72
2024/04/01 14:47:42;;;;;;;0.70;0.22;;;;;;;;;;5074694;28;20035;-73
2024/04/01 14:50:09;;;;;;;3.40;0.60;;;;;;;;;;5074700;28;20032;-72
2024/04/01 14:52:35;;;;;;;0.77;0.30;;;;;;;;;;5074845;28;20016;-72